Time;durP1;ratioP1;P1;durP2;ratioP2;P2;SDS_P1;SDS_P2;PMS_P1;PMS_P2;Temp;Humidity;BMP_temperature;BMP_pressure;BME280_temperature;BME280_humidity;BME280_pressure;Samples;Min_cycle;Max_cycle;Signal;HPM_P1;HPM_P2
2022/04/29 00:00:07;;;;;;;7.13;6.43;;;;;;;10.23;66.39;97470.50;5044199;28;20223;-54
2022/04/29 00:02:33;;;;;;;7.67;6.80;;;;;;;10.16;66.26;97467.50;5043922;28;20216;-54
2022/04/29 00:05:00;;;;;;;7.37;6.67;;;;;;;10.13;66.95;97458.94;5043510;28;20222;-55
2022/04/29 00:07:28;;;;;;;7.40;6.80;;;;;;;10.08;67.36;97456.66;5044020;28;20694;-55
2022/04/29 00:09:56;;;;;;;7.53;6.83;;;;;;;10.00;67.49;97453.75;5043773;28;20654;-53
2022/04/29 00:12:22;;;;;;;6.50;6.00;;;;;;;9.95;67.24;97458.56;5043731;28;20211;-54
2022/04/29 00:14:49;;;;;;;7.07;6.37;;;;;;;9.93;67.80;97453.41;5044868;28;20645;-54
2022/04/29 00:17:16;;;;;;;7.63;6.93;;;;;;;9.97;67.29;97465.41;5043909;28;20203;-53
2022/04/29 00:19:43;;;;;;;7.57;6.43;;;;;;;9.87;67.98;97464.44;5062526;28;20303;-52
2022/04/29 00:22:13;;;;;;;7.47;6.80;;;;;;;9.86;67.78;97465.41;5044743;28;20204;-54
2022/04/29 00:24:41;;;;;;;7.77;6.90;;;;;;;9.89;67.97;97461.66;5044524;28;20295;-54
2022/04/29 00:27:08;;;;;;;9.23;7.23;;;;;;;9.72;69.04;97462.97;5044192;28;20216;-54
2022/04/29 00:29:34;;;;;;;7.67;7.07;;;;;;;9.76;68.45;97455.66;5032286;28;20664;-54
2022/04/29 00:32:02;;;;;;;7.93;7.00;;;;;;;9.63;69.75;97455.78;5042573;28;20635;-54
2022/04/29 00:34:29;;;;;;;7.60;6.90;;;;;;;9.62;69.06;97462.00;5043998;28;20199;-54
2022/04/29 00:36:55;;;;;;;8.00;7.10;;;;;;;9.56;69.58;97448.44;5043878;28;20207;-55
2022/04/29 00:39:23;;;;;;;7.70;7.00;;;;;;;9.53;69.78;97446.84;5043412;28;20204;-54
2022/04/29 00:41:51;;;;;;;7.37;6.73;;;;;;;9.50;70.16;97441.81;5043996;28;20536;-52
2022/04/29 00:44:17;;;;;;;7.13;6.53;;;;;;;9.44;69.58;97444.91;5043475;28;20239;-54
2022/04/29 00:46:46;;;;;;;7.37;6.67;;;;;;;9.39;70.02;97439.97;5043167;28;20235;-54
2022/04/29 00:49:14;;;;;;;7.63;6.93;;;;;;;9.37;70.00;97443.69;5043110;28;20666;-54
2022/04/29 00:51:44;;;;;;;8.07;7.07;;;;;;;9.32;70.55;97440.56;5043558;28;20209;-54
2022/04/29 00:54:15;;;;;;;7.30;6.70;;;;;;;9.39;71.13;97442.63;5043408;28;20215;-54
2022/04/29 00:56:43;;;;;;;7.50;6.80;;;;;;;9.45;70.57;97444.81;5043555;28;20213;-53
2022/04/29 00:59:15;;;;;;;7.13;6.63;;;;;;;9.42;70.51;97446.84;5043349;28;20558;-53
2022/04/29 01:01:45;;;;;;;7.70;7.10;;;;;;;9.38;69.56;97442.75;5042789;28;20212;-54
2022/04/29 01:04:13;;;;;;;7.63;6.83;;;;;;;9.36;70.97;97444.66;5043095;28;20211;-54
2022/04/29 01:06:40;;;;;;;8.00;7.20;;;;;;;9.23;71.72;97442.13;5056414;28;20222;-54
2022/04/29 01:09:08;;;;;;;7.83;7.07;;;;;;;9.22;71.13;97429.88;5044337;28;20200;-54
2022/04/29 01:11:35;;;;;;;7.77;7.10;;;;;;;9.20;71.07;97425.66;5048313;28;20206;-55
2022/04/29 01:14:02;;;;;;;8.47;7.03;;;;;;;9.24;70.86;97433.25;5044784;28;20195;-54
2022/04/29 01:16:30;;;;;;;7.43;6.80;;;;;;;9.21;70.91;97432.63;5047336;28;20212;-55
2022/04/29 01:18:57;;;;;;;7.87;6.70;;;;;;;9.17;71.78;97426.75;5043262;28;20218;-54
2022/04/29 01:21:24;;;;;;;7.10;6.50;;;;;;;9.16;72.25;97430.34;5043487;28;20215;-54
2022/04/29 01:23:56;;;;;;;7.10;6.50;;;;;;;9.18;72.03;97427.56;5042304;28;20639;-54
2022/04/29 01:26:22;;;;;;;7.03;6.43;;;;;;;9.10;72.44;97428.16;5042165;28;20654;-55
2022/04/29 01:28:50;;;;;;;7.30;6.60;;;;;;;9.04;73.26;97425.97;5042592;28;20203;-54
2022/04/29 01:31:17;;;;;;;7.00;6.40;;;;;;;8.96;74.03;97426.53;5042602;28;20204;-55
2022/04/29 01:33:46;;;;;;;7.70;7.00;;;;;;;8.98;72.57;97419.34;5041655;28;20207;-54
2022/04/29 01:36:13;;;;;;;7.67;7.00;;;;;;;8.90;73.43;97408.53;5042472;28;20215;-54
2022/04/29 01:38:40;;;;;;;7.50;6.80;;;;;;;8.89;73.94;97409.47;5042471;28;20531;-54
2022/04/29 01:41:08;;;;;;;7.47;6.80;;;;;;;8.89;73.36;97416.56;5048657;28;20195;-53
2022/04/29 01:43:35;;;;;;;7.93;7.23;;;;;;;8.99;72.83;97423.69;5049786;28;20226;-54
2022/04/29 01:46:03;;;;;;;7.40;6.70;;;;;;;8.99;73.49;97417.56;5047276;28;20556;-54
2022/04/29 01:48:30;;;;;;;7.33;6.63;;;;;;;8.98;72.60;97410.59;5042826;28;20647;-55
2022/04/29 01:50:56;;;;;;;7.67;7.07;;;;;;;8.94;73.49;97420.53;5042797;28;20195;-55
2022/04/29 01:53:23;;;;;;;6.87;6.37;;;;;;;8.90;73.61;97424.34;5042950;28;20222;-55
2022/04/29 01:55:49;;;;;;;7.73;7.03;;;;;;;8.85;73.08;97415.13;5042804;28;20211;-54
2022/04/29 01:58:17;;;;;;;7.00;6.50;;;;;;;8.89;72.82;97412.09;5042078;28;20199;-55
2022/04/29 02:00:44;;;;;;;7.47;6.77;;;;;;;8.87;73.18;97403.47;5042422;28;20203;-54
2022/04/29 02:03:10;;;;;;;7.07;6.47;;;;;;;8.78;73.85;97401.53;5041762;28;20560;-53
2022/04/29 02:05:37;;;;;;;7.63;7.03;;;;;;;8.75;74.16;97407.00;5030855;28;20562;-54
2022/04/29 02:08:05;;;;;;;7.50;6.80;;;;;;;8.73;73.62;97400.19;5042364;28;20293;-52
2022/04/29 02:10:31;;;;;;;7.53;6.83;;;;;;;8.70;73.22;97409.16;5042120;28;20535;-55
2022/04/29 02:12:57;;;;;;;7.70;7.03;;;;;;;8.72;73.06;97396.69;5042022;28;20203;-53
2022/04/29 02:15:26;;;;;;;7.10;6.50;;;;;;;8.76;73.02;97395.53;5041839;28;20211;-54
2022/04/29 02:17:52;;;;;;;10.63;6.67;;;;;;;8.65;74.45;97397.25;5041572;28;20286;-54
2022/04/29 02:20:21;;;;;;;7.60;7.00;;;;;;;8.55;75.92;97386.56;5040656;28;20230;-54
2022/04/29 02:22:47;;;;;;;8.40;7.47;;;;;;;8.63;74.50;97381.56;5041834;28;20534;-53
2022/04/29 02:25:14;;;;;;;7.40;6.80;;;;;;;8.63;74.49;97386.84;5042669;28;20239;-54
2022/04/29 02:27:40;;;;;;;9.00;7.33;;;;;;;8.50;75.11;97378.16;5042309;28;20682;-54
2022/04/29 02:30:08;;;;;;;8.30;7.47;;;;;;;8.57;75.35;97373.28;5041781;28;20199;-54
2022/04/29 02:32:36;;;;;;;7.80;7.07;;;;;;;8.68;73.46;97379.41;5041749;28;20206;-55
2022/04/29 02:35:03;;;;;;;7.87;7.17;;;;;;;8.51;73.94;97382.47;5041868;28;20212;-54
2022/04/29 02:37:30;;;;;;;8.43;7.30;;;;;;;8.51;74.56;97377.19;5041687;28;20639;-54
2022/04/29 02:39:56;;;;;;;7.50;6.80;;;;;;;8.49;74.63;97371.19;5042266;28;20206;-53
2022/04/29 02:42:22;;;;;;;7.00;6.37;;;;;;;8.55;74.27;97368.09;5041406;28;20212;-54
2022/04/29 02:44:49;;;;;;;7.83;7.13;;;;;;;8.52;74.46;97365.69;5042214;28;20203;-54
2022/04/29 02:47:16;;;;;;;7.73;7.03;;;;;;;8.53;74.50;97366.53;5041666;28;20551;-55
2022/04/29 02:49:46;;;;;;;7.83;7.17;;;;;;;8.51;74.17;97366.63;5041664;28;20227;-53
2022/04/29 02:52:13;;;;;;;7.17;6.53;;;;;;;8.43;75.81;97363.75;5041204;28;20231;-54
2022/04/29 02:54:40;;;;;;;7.50;6.83;;;;;;;8.40;75.42;97366.59;5041937;28;20203;-54
2022/04/29 02:57:08;;;;;;;7.57;6.83;;;;;;;8.38;76.21;97371.13;5041906;28;20203;-54
2022/04/29 02:59:34;;;;;;;8.10;7.40;;;;;;;8.26;76.73;97369.34;5041004;28;20627;-54
2022/04/29 03:02:01;;;;;;;7.57;6.80;;;;;;;8.29;76.38;97369.19;5040819;28;20544;-53
2022/04/29 03:04:28;;;;;;;7.50;6.80;;;;;;;8.28;77.13;97362.19;5041414;28;20543;-54
2022/04/29 03:06:56;;;;;;;7.33;6.73;;;;;;;8.26;76.61;97358.81;5040681;28;20242;-54
2022/04/29 03:09:23;;;;;;;7.40;6.70;;;;;;;8.22;77.27;97358.19;5041396;28;20233;-54
2022/04/29 03:11:50;;;;;;;8.00;7.20;;;;;;;8.16;76.69;97357.78;5040633;28;20256;-54
2022/04/29 03:14:16;;;;;;;7.13;6.50;;;;;;;8.18;77.23;97361.19;5040883;28;20205;-54
2022/04/29 03:16:43;;;;;;;7.83;7.03;;;;;;;8.11;77.72;97360.78;5041366;28;20302;-53
2022/04/29 03:19:10;;;;;;;8.00;7.30;;;;;;;8.09;77.46;97356.56;5041037;28;20200;-54
2022/04/29 03:21:37;;;;;;;8.03;7.13;;;;;;;8.08;77.56;97352.25;5041029;28;20333;-54
2022/04/29 03:24:06;;;;;;;8.27;6.67;;;;;;;8.09;77.24;97354.75;5029689;28;20559;-55
2022/04/29 03:26:32;;;;;;;7.87;7.07;;;;;;;7.97;78.24;97351.22;5040705;28;20207;-54
2022/04/29 03:28:59;;;;;;;6.77;6.20;;;;;;;7.90;78.57;97349.16;5041570;28;21309;-54
2022/04/29 03:31:25;;;;;;;7.50;6.90;;;;;;;7.98;78.57;97349.41;5040721;28;20639;-54
2022/04/29 03:33:52;;;;;;;7.77;7.07;;;;;;;7.86;78.17;97345.91;5041066;28;20211;-54
2022/04/29 03:36:19;;;;;;;7.77;6.93;;;;;;;7.88;78.66;97343.97;5030167;28;20210;-54
2022/04/29 03:38:45;;;;;;;8.03;7.20;;;;;;;7.88;78.76;97345.75;5040806;28;20200;-54
2022/04/29 03:41:14;;;;;;;7.70;7.07;;;;;;;7.88;79.63;97343.13;5040970;28;20207;-54
2022/04/29 03:43:40;;;;;;;7.43;6.83;;;;;;;7.90;78.75;97347.34;5040826;28;20204;-53
2022/04/29 03:46:07;;;;;;;7.47;6.87;;;;;;;7.86;78.00;97345.91;5040865;28;20211;-55
2022/04/29 03:49:35;;;;;;;8.83;7.20;;;;;;;7.85;78.69;97360.00;5040813;28;20234;-54
2022/04/29 03:51:21;;;;;;;7.70;6.97;;;;;;;7.81;79.04;97353.25;5040506;28;20286;-54
2022/04/29 03:53:51;;;;;;;7.80;7.10;;;;;;;7.78;79.54;97350.84;5040485;28;20222;-54
2022/04/29 03:56:19;;;;;;;11.13;9.33;;;;;;;7.75;79.21;97345.81;5044651;28;20206;-54
2022/04/29 03:58:46;;;;;;;8.07;7.37;;;;;;;7.74;78.87;97351.16;5045146;28;20215;-54
2022/04/29 04:01:12;;;;;;;7.90;7.20;;;;;;;7.72;79.00;97348.63;5052740;28;20208;-54
2022/04/29 04:03:39;;;;;;;8.23;7.43;;;;;;;7.76;78.77;97344.03;5048305;28;20195;-53
2022/04/29 04:08:50;;;;;;;7.50;6.90;;;;;;;7.72;79.61;97350.44;5043786;28;20230;-53
2022/04/29 04:11:17;;;;;;;7.63;7.00;;;;;;;7.73;79.67;97350.31;5044038;28;20208;-54
2022/04/29 04:13:45;;;;;;;7.00;6.30;;;;;;;7.53;80.84;97356.16;5029625;28;20245;-54
2022/04/29 04:16:13;;;;;;;8.00;7.20;;;;;;;7.57;81.05;97356.78;5044203;28;20659;-54
2022/04/29 04:18:39;;;;;;;7.73;7.03;;;;;;;7.51;81.48;97355.41;5043689;28;20599;-53
2022/04/29 04:21:06;;;;;;;7.30;6.67;;;;;;;7.61;81.27;97361.72;5043709;28;20208;-53
2022/04/29 04:23:32;;;;;;;11.53;10.37;;;;;;;7.70;81.39;97362.88;5044329;28;20215;-53
2022/04/29 04:25:58;;;;;;;7.67;6.90;;;;;;;7.64;81.00;97366.78;5045441;28;20199;-53
2022/04/29 04:28:25;;;;;;;7.17;6.57;;;;;;;7.74;80.56;97367.81;5044252;28;20231;-53
2022/04/29 04:30:55;;;;;;;7.80;7.10;;;;;;;7.83;80.07;97367.16;5044496;28;20200;-53
2022/04/29 04:33:21;;;;;;;8.80;7.10;;;;;;;7.85;80.17;97370.53;5044220;28;20200;-53
2022/04/29 04:35:50;;;;;;;7.63;7.03;;;;;;;7.99;79.47;97367.75;5044594;28;20211;-54
2022/04/29 04:38:17;;;;;;;7.60;7.00;;;;;;;8.20;78.41;97373.28;5043985;28;20595;-53
2022/04/29 04:40:44;;;;;;;7.47;6.77;;;;;;;8.49;77.22;97372.03;5043694;28;20216;-54
2022/04/29 04:43:12;;;;;;;7.73;7.03;;;;;;;8.85;76.18;97368.47;5043667;28;20198;-54
2022/04/29 04:45:39;;;;;;;7.97;7.13;;;;;;;9.12;75.24;97364.69;5043802;28;20275;-52
2022/04/29 04:48:09;;;;;;;7.10;6.50;;;;;;;9.25;74.50;97368.09;5043735;28;20216;-53
2022/04/29 04:50:35;;;;;;;7.63;6.93;;;;;;;9.21;74.97;97364.03;5043705;28;20234;-53
2022/04/29 04:53:02;;;;;;;7.27;6.57;;;;;;;9.25;75.93;97370.72;5043418;28;20203;-52
2022/04/29 04:55:29;;;;;;;7.87;7.10;;;;;;;9.43;75.17;97374.59;5042867;28;20197;-54
2022/04/29 04:57:55;;;;;;;7.23;6.63;;;;;;;9.40;75.65;97365.13;5044508;28;20204;-53
2022/04/29 05:00:22;;;;;;;6.80;6.30;;;;;;;9.50;74.72;97371.38;5044238;28;20208;-54
2022/04/29 05:02:48;;;;;;;7.30;6.40;;;;;;;10.16;73.25;97374.16;5042740;28;20884;-53
2022/04/29 05:05:18;;;;;;;8.57;6.53;;;;;;;10.67;68.37;97379.66;5043664;28;20639;-54
2022/04/29 05:07:45;;;;;;;7.00;6.40;;;;;;;10.98;66.88;97384.13;5042897;28;20297;-54
2022/04/29 05:10:12;;;;;;;7.27;6.67;;;;;;;11.11;69.14;97371.53;5043803;28;20635;-55
2022/04/29 05:12:40;;;;;;;7.33;6.57;;;;;;;11.63;66.91;97375.88;5043450;28;20206;-54
2022/04/29 05:15:09;;;;;;;7.07;6.03;;;;;;;12.26;64.19;97379.22;5044920;28;20214;-54
2022/04/29 05:17:35;;;;;;;6.90;6.23;;;;;;;12.78;63.25;97378.94;5045909;28;20191;-54
2022/04/29 05:20:02;;;;;;;7.37;6.40;;;;;;;13.67;57.76;97375.09;5045286;28;20230;-54
2022/04/29 05:22:30;;;;;;;7.03;6.13;;;;;;;13.89;55.48;97382.69;5046629;28;20202;-52
2022/04/29 05:24:57;;;;;;;6.80;6.20;;;;;;;13.83;54.68;97388.59;5051283;28;20206;-53
2022/04/29 05:27:23;;;;;;;6.53;5.97;;;;;;;13.77;56.23;97391.84;5049844;28;20206;-53
2022/04/29 05:29:50;;;;;;;6.80;6.20;;;;;;;13.49;56.14;97398.06;5051423;28;20286;-52
2022/04/29 05:32:17;;;;;;;6.93;6.33;;;;;;;12.92;59.57;97402.41;5049778;28;20634;-52
2022/04/29 05:34:44;;;;;;;7.53;6.83;;;;;;;13.00;58.73;97408.84;5047497;28;20218;-53
2022/04/29 05:37:10;;;;;;;7.33;6.73;;;;;;;13.02;58.80;97410.38;5046331;28;20212;-54
2022/04/29 05:42:23;;;;;;;7.03;6.53;;;;;;;12.60;58.78;97411.56;5044482;28;20262;-52
2022/04/29 05:44:50;;;;;;;7.00;6.30;;;;;;;12.58;61.30;97405.56;5045080;28;20199;-53
2022/04/29 05:47:16;;;;;;;8.37;6.83;;;;;;;12.81;58.32;97417.63;5042569;28;20273;-52
2022/04/29 05:49:43;;;;;;;7.80;6.40;;;;;;;13.11;58.48;97411.41;5042039;28;20232;-54
2022/04/29 05:52:11;;;;;;;7.87;7.07;;;;;;;13.42;55.71;97410.25;5042530;28;21334;-53
2022/04/29 05:54:39;;;;;;;6.77;6.10;;;;;;;13.93;52.06;97407.19;5042867;28;20271;-53
2022/04/29 05:57:07;;;;;;;7.40;6.80;;;;;;;14.13;55.06;97414.13;5042385;28;20562;-53
2022/04/29 05:59:33;;;;;;;8.33;6.80;;;;;;;14.50;50.88;97413.25;5042562;28;20203;-53
2022/04/29 06:02:00;;;;;;;7.53;6.57;;;;;;;14.70;51.77;97418.31;5042329;28;20211;-54
2022/04/29 06:04:26;;;;;;;6.90;6.30;;;;;;;15.43;49.24;97405.69;5042269;28;20207;-54
2022/04/29 06:06:53;;;;;;;7.00;6.30;;;;;;;15.77;47.27;97414.66;5041426;28;20207;-53
2022/04/29 06:09:22;;;;;;;8.77;6.47;;;;;;;15.58;48.10;97409.53;5042140;28;20237;-54
2022/04/29 06:11:50;;;;;;;6.60;6.10;;;;;;;16.22;47.29;97408.25;5042678;28;20284;-53
2022/04/29 06:14:17;;;;;;;6.63;5.93;;;;;;;16.46;45.33;97399.50;5042490;28;20203;-53
2022/04/29 06:16:45;;;;;;;7.20;6.50;;;;;;;16.24;48.84;97400.91;5041189;28;20215;-52
2022/04/29 06:19:12;;;;;;;6.80;6.10;;;;;;;16.29;46.79;97399.44;5047381;28;20188;-54
2022/04/29 06:21:40;;;;;;;6.55;6.05;;;;;;;16.37;46.88;97406.63;5064437;28;20195;-53
2022/04/29 06:24:07;;;;;;;6.45;5.85;;;;;;;16.96;44.61;97412.88;5048184;28;20203;-54
2022/04/29 06:26:34;;;;;;;6.50;5.95;;;;;;;16.82;46.24;97404.50;5053003;28;20261;-54
2022/04/29 06:29:04;;;;;;;6.90;6.22;;;;;;;16.63;45.32;97410.13;5043470;28;20223;-55
2022/04/29 06:31:32;;;;;;;7.32;6.63;;;;;;;16.94;46.15;97415.69;5044161;28;20224;-53
2022/04/29 06:33:59;;;;;;;7.00;6.30;;;;;;;17.11;45.90;97411.25;5040806;28;20572;-55
2022/04/29 06:36:25;;;;;;;9.85;6.60;;;;;;;17.17;45.18;97415.91;5042423;28;20537;-54
2022/04/29 06:38:53;;;;;;;6.65;6.15;;;;;;;17.41;41.70;97424.81;5041317;28;20202;-55
2022/04/29 06:41:19;;;;;;;6.55;5.95;;;;;;;17.06;40.64;97418.91;5041771;28;20211;-54
2022/04/29 06:43:46;;;;;;;6.88;6.00;;;;;;;17.16;42.15;97414.25;5041152;28;20630;-54
2022/04/29 06:46:15;;;;;;;6.82;5.95;;;;;;;17.32;40.62;97415.09;5040979;28;20593;-55
2022/04/29 06:48:42;;;;;;;6.47;5.80;;;;;;;17.42;43.34;97415.78;5041592;28;20242;-55
2022/04/29 06:51:09;;;;;;;7.55;6.35;;;;;;;18.23;40.60;97410.34;5040804;28;20376;-53
2022/04/29 06:53:36;;;;;;;6.97;6.10;;;;;;;17.97;41.10;97414.25;5042267;28;20538;-54
2022/04/29 06:56:02;;;;;;;6.53;6.03;;;;;;;18.21;40.44;97417.69;5042202;28;20202;-54
2022/04/29 06:58:29;;;;;;;7.03;6.22;;;;;;;18.02;42.48;97412.75;5040532;28;20562;-54
2022/04/29 07:00:55;;;;;;;7.07;6.43;;;;;;;18.29;40.72;97406.13;5041242;28;20542;-53
2022/04/29 07:03:23;;;;;;;7.57;6.82;;;;;;;18.22;41.64;97397.13;5040758;28;20654;-53
2022/04/29 07:05:51;;;;;;;7.32;6.72;;;;;;;18.40;42.20;97405.75;5041391;28;20567;-58
2022/04/29 07:08:20;;;;;;;7.13;6.43;;;;;;;18.69;39.94;97403.34;5040886;28;20199;-54
2022/04/29 07:10:46;;;;;;;7.30;6.25;;;;;;;18.72;40.11;97400.28;5041641;28;20231;-52
2022/04/29 07:13:13;;;;;;;9.32;5.72;;;;;;;18.78;39.02;97399.59;5041070;28;20195;-54
2022/04/29 07:15:43;;;;;;;8.48;6.35;;;;;;;18.87;39.32;97387.00;5041504;28;20207;-54
2022/04/29 07:18:10;;;;;;;6.90;6.30;;;;;;;18.81;39.52;97388.50;5041593;28;20202;-54
2022/04/29 07:20:38;;;;;;;6.18;5.68;;;;;;;19.01;38.65;97382.72;5040691;28;20592;-53
2022/04/29 07:23:04;;;;;;;6.47;5.82;;;;;;;19.13;40.19;97382.09;5030003;28;20555;-54
2022/04/29 07:25:31;;;;;;;6.90;5.60;;;;;;;19.16;38.62;97391.66;5041745;28;20207;-55
2022/04/29 07:28:00;;;;;;;6.63;6.03;;;;;;;19.09;38.69;97385.34;5041827;28;20203;-54
2022/04/29 07:30:27;;;;;;;7.07;6.43;;;;;;;18.98;40.52;97383.06;5045810;28;20547;-54
2022/04/29 07:32:54;;;;;;;6.75;6.15;;;;;;;19.28;38.67;97379.50;5045169;28;20312;-54
2022/04/29 07:43:37;;;;;;;8.07;6.18;;;;;;;19.77;38.45;97374.56;5044777;28;20219;-55
2022/04/29 07:46:04;;;;;;;8.43;6.25;;;;;;;20.11;38.21;97384.81;5045268;28;20227;-55
2022/04/29 07:48:32;;;;;;;6.63;6.07;;;;;;;19.68;36.31;97381.88;5032982;28;20631;-53
2022/04/29 07:50:58;;;;;;;8.15;6.53;;;;;;;20.17;39.01;97381.38;5044891;28;20229;-53
2022/04/29 07:53:28;;;;;;;6.68;5.90;;;;;;;20.33;37.93;97376.66;5032986;28;20214;-55
2022/04/29 07:55:58;;;;;;;7.70;6.50;;;;;;;20.69;35.82;97376.72;5044758;28;20616;-54
2022/04/29 07:58:25;;;;;;;7.07;6.43;;;;;;;20.45;37.69;97374.34;5044804;28;20591;-54
2022/04/29 08:00:52;;;;;;;7.88;6.35;;;;;;;20.00;37.71;97361.09;5044663;28;20211;-54
2022/04/29 08:03:18;;;;;;;7.45;6.75;;;;;;;19.85;39.58;97369.97;5043935;28;20230;-53
2022/04/29 08:05:45;;;;;;;7.15;6.65;;;;;;;19.63;37.83;97370.84;5044092;28;20203;-54
2022/04/29 08:08:13;;;;;;;6.25;5.75;;;;;;;19.06;40.59;97365.06;5044579;28;20215;-54
2022/04/29 08:10:41;;;;;;;7.05;6.45;;;;;;;19.07;41.39;97368.59;5044659;28;20219;-54
2022/04/29 08:13:07;;;;;;;7.68;6.97;;;;;;;19.03;40.94;97369.94;5045416;28;20550;-55
2022/04/29 08:15:34;;;;;;;7.30;6.55;;;;;;;18.81;40.08;97364.38;5044190;28;20206;-54
2022/04/29 08:18:00;;;;;;;7.85;6.65;;;;;;;19.11;41.63;97361.84;5043146;28;20210;-54
2022/04/29 08:20:28;;;;;;;6.47;5.93;;;;;;;18.92;41.28;97357.78;5043598;28;20709;-55
2022/04/29 08:22:54;;;;;;;7.82;7.10;;;;;;;18.95;40.94;97356.63;5042763;28;20200;-54
2022/04/29 08:25:23;;;;;;;7.32;6.22;;;;;;;19.08;41.10;97359.53;5044386;28;20245;-54
2022/04/29 08:27:51;;;;;;;6.68;6.15;;;;;;;19.16;40.93;97357.66;5044525;28;20207;-53
2022/04/29 08:30:18;;;;;;;8.43;6.47;;;;;;;18.92;42.75;97346.25;5043008;28;20308;-55
2022/04/29 08:32:47;;;;;;;7.22;6.50;;;;;;;19.38;42.54;97350.56;5043310;28;20558;-53
2022/04/29 08:35:14;;;;;;;7.03;6.40;;;;;;;19.34;41.63;97351.97;5043205;28;20302;-54
2022/04/29 08:37:42;;;;;;;10.95;6.78;;;;;;;19.48;40.64;97350.38;5052366;28;20206;-54
2022/04/29 08:40:10;;;;;;;6.65;6.05;;;;;;;19.76;42.37;97346.06;5046847;28;20206;-54
2022/04/29 08:42:40;;;;;;;7.20;6.55;;;;;;;19.37;39.50;97339.03;5044059;28;20203;-54
2022/04/29 08:45:11;;;;;;;6.95;6.28;;;;;;;19.54;40.55;97347.78;5044241;28;20254;-54
2022/04/29 08:47:39;;;;;;;7.18;6.50;;;;;;;19.04;39.39;97350.19;5043626;28;20196;-55
2022/04/29 08:50:07;;;;;;;6.45;5.95;;;;;;;19.36;41.22;97345.41;5042987;28;20313;-55
2022/04/29 08:52:34;;;;;;;6.20;5.78;;;;;;;19.35;40.29;97342.88;5042977;28;20207;-54
2022/04/29 09:00:31;;;;;;;6.47;5.97;;;;;;;20.21;39.27;97337.00;5043360;28;20195;-55
2022/04/29 09:02:59;;;;;;;7.93;5.97;;;;;;;20.34;38.87;97340.72;5043019;28;20200;-55
2022/04/29 09:05:27;;;;;;;8.32;6.30;;;;;;;20.30;40.01;97338.59;5032121;28;20211;-54
2022/04/29 09:07:56;;;;;;;6.18;5.68;;;;;;;21.08;40.47;97330.59;5044422;28;20203;-54
2022/04/29 09:10:23;;;;;;;5.63;4.95;;;;;;;21.44;39.25;97322.50;5043687;28;20231;-53
2022/04/29 09:12:50;;;;;;;6.35;5.82;;;;;;;21.90;37.33;97327.38;5043457;28;20222;-54
2022/04/29 09:15:17;;;;;;;6.03;5.43;;;;;;;21.55;38.19;97327.34;5044330;28;20195;-55
2022/04/29 09:17:46;;;;;;;7.30;5.47;;;;;;;21.09;37.42;97329.59;5042614;28;20204;-54
2022/04/29 09:20:18;;;;;;;5.90;5.43;;;;;;;21.33;36.50;97331.06;5032048;28;20394;-55
2022/04/29 09:22:47;;;;;;;6.00;5.43;;;;;;;21.84;37.52;97318.25;5042515;28;20246;-56
2022/04/29 09:25:14;;;;;;;5.38;4.80;;;;;;;22.03;37.84;97325.66;5043246;28;20249;-55
2022/04/29 09:27:54;;;;;;;5.38;4.88;;;;;;;22.36;37.79;97317.72;5042238;28;20208;-53
2022/04/29 09:30:38;;;;;;;6.97;5.47;;;;;;;22.30;36.05;97318.53;5042091;28;20660;-54
2022/04/29 09:33:07;;;;;;;5.93;5.43;;;;;;;22.18;35.25;97325.50;5040512;28;20207;-54
2022/04/29 09:35:40;;;;;;;6.15;5.55;;;;;;;22.00;36.32;97320.63;5042741;28;20298;-53
2022/04/29 09:40:52;;;;;;;5.30;4.78;;;;;;;22.17;37.89;97313.09;5042450;28;20269;-53
2022/04/29 09:43:36;;;;;;;5.10;4.70;;;;;;;21.83;36.34;97312.03;5043134;28;20218;-53
2022/04/29 09:46:17;;;;;;;5.32;4.80;;;;;;;22.07;37.01;97323.41;5040374;28;20651;-54
2022/04/29 09:49:02;;;;;;;4.88;4.57;;;;;;;21.64;35.13;97323.50;5041925;28;20762;-53
2022/04/29 09:51:39;;;;;;;5.57;5.07;;;;;;;21.25;36.85;97317.78;5042269;28;20207;-53
2022/04/29 09:54:11;;;;;;;5.35;4.75;;;;;;;21.56;36.96;97318.25;5041591;28;20253;-52
2022/04/29 09:56:38;;;;;;;8.52;4.38;;;;;;;21.49;37.49;97322.75;5043132;28;20283;-52
2022/04/29 09:59:07;;;;;;;4.35;4.05;;;;;;;21.64;36.19;97311.91;5042341;28;20219;-52
2022/04/29 10:01:33;;;;;;;4.65;4.35;;;;;;;21.36;37.56;97311.03;5041844;28;20207;-53
2022/04/29 10:04:01;;;;;;;4.90;4.50;;;;;;;21.44;35.45;97306.34;5041832;28;20207;-53
2022/04/29 10:06:30;;;;;;;5.20;4.70;;;;;;;21.47;36.35;97305.13;5041694;28;20637;-53
2022/04/29 10:09:10;;;;;;;4.72;4.32;;;;;;;21.92;35.75;97303.81;5041700;28;20208;-53
2022/04/29 10:11:38;;;;;;;4.70;4.38;;;;;;;21.43;36.48;97299.31;5030069;28;20218;-52
2022/04/29 10:14:06;;;;;;;5.72;4.20;;;;;;;21.80;36.96;97298.94;5041848;28;20320;-56
2022/04/29 10:16:34;;;;;;;4.47;4.07;;;;;;;22.17;37.57;97305.84;5041535;28;21334;-56
2022/04/29 10:21:51;;;;;;;5.03;4.40;;;;;;;21.72;35.60;97299.09;5041594;28;20284;-56
2022/04/29 10:24:18;;;;;;;4.68;4.15;;;;;;;21.86;37.16;97288.44;5042113;28;20223;-57
2022/04/29 10:26:45;;;;;;;4.38;3.97;;;;;;;22.38;37.15;97286.03;5043545;28;20195;-57
2022/04/29 10:29:12;;;;;;;4.18;3.55;;;;;;;22.79;35.61;97281.41;5045582;28;20192;-56
2022/04/29 10:31:39;;;;;;;4.38;4.03;;;;;;;22.85;36.52;97279.75;5042357;28;20218;-55
2022/04/29 10:34:29;;;;;;;4.13;3.80;;;;;;;22.92;36.47;97274.41;5043487;28;20213;-55
2022/04/29 10:36:57;;;;;;;3.92;3.55;;;;;;;22.85;35.07;97276.25;5042477;28;20219;-52
2022/04/29 10:39:24;;;;;;;4.55;3.88;;;;;;;22.93;35.60;97270.63;5043099;28;20631;-53
2022/04/29 10:42:01;;;;;;;5.03;3.70;;;;;;;22.71;35.03;97272.66;5040829;28;20227;-51
2022/04/29 10:44:28;;;;;;;4.30;3.60;;;;;;;22.91;33.69;97261.94;5041646;28;20196;-52
2022/04/29 10:46:54;;;;;;;3.90;3.60;;;;;;;22.95;35.44;97263.19;5041247;28;20210;-53
2022/04/29 10:49:23;;;;;;;4.28;3.85;;;;;;;22.97;35.72;97266.50;5043140;28;20247;-55
2022/04/29 10:51:52;;;;;;;4.57;3.97;;;;;;;22.69;38.17;97263.97;5059666;28;20200;-52
2022/04/29 10:54:43;;;;;;;4.53;4.13;;;;;;;22.83;35.16;97270.22;5061721;28;20210;-53
2022/04/29 10:57:12;;;;;;;4.30;4.00;;;;;;;23.50;35.78;97264.69;5038176;28;20295;-53
2022/04/29 10:59:49;;;;;;;4.25;3.95;;;;;;;24.10;34.66;97263.53;5043827;28;20196;-51
2022/04/29 11:02:24;;;;;;;3.90;3.50;;;;;;;23.63;32.99;97249.28;5042035;28;20206;-52
2022/04/29 11:04:50;;;;;;;4.45;4.05;;;;;;;23.31;32.59;97250.94;5044348;28;20208;-52
2022/04/29 11:07:42;;;;;;;3.95;3.50;;;;;;;23.48;33.71;97245.19;5046291;28;20212;-50
2022/04/29 11:10:09;;;;;;;4.63;4.15;;;;;;;23.33;34.38;97245.34;5041411;28;20253;-50
2022/04/29 11:12:37;;;;;;;4.22;3.92;;;;;;;23.35;33.81;97243.28;5044732;28;20210;-50
2022/04/29 11:15:15;;;;;;;4.57;3.65;;;;;;;23.27;34.29;97238.09;5045021;28;20211;-51
2022/04/29 11:17:42;;;;;;;4.35;3.95;;;;;;;23.47;34.30;97244.34;5045000;28;20195;-51
2022/04/29 11:20:17;;;;;;;3.22;3.03;;;;;;;23.31;34.38;97233.94;5043749;28;20203;-50
2022/04/29 11:25:51;;;;;;;4.05;2.97;;;;;;;24.06;33.06;97235.25;5044906;28;20214;-50
2022/04/29 11:28:18;;;;;;;3.10;2.90;;;;;;;24.45;34.27;97227.00;5044583;28;20666;-50
2022/04/29 11:30:45;;;;;;;3.78;3.35;;;;;;;24.39;34.93;97219.78;5044629;28;20234;-50
2022/04/29 11:33:11;;;;;;;3.53;3.22;;;;;;;24.07;33.45;97218.00;5043687;28;20204;-51
2022/04/29 11:35:43;;;;;;;3.60;3.30;;;;;;;23.27;32.27;97214.66;5044905;28;20207;-51
2022/04/29 11:38:14;;;;;;;4.05;3.65;;;;;;;22.97;34.06;97221.47;5044325;28;20511;-50
2022/04/29 11:40:42;;;;;;;4.00;3.70;;;;;;;22.59;33.36;97212.28;5045194;28;20191;-50
2022/04/29 11:43:11;;;;;;;3.05;2.85;;;;;;;22.74;34.61;97213.78;5044409;28;20513;-50
2022/04/29 11:45:40;;;;;;;3.25;2.83;;;;;;;22.20;34.88;97210.31;5045844;28;20207;-51
2022/04/29 11:48:09;;;;;;;4.35;3.40;;;;;;;21.92;35.07;97202.31;5041818;28;20292;-50
2022/04/29 11:50:37;;;;;;;3.78;3.15;;;;;;;22.31;35.13;97198.94;5044101;28;20227;-50
2022/04/29 11:53:15;;;;;;;3.35;3.15;;;;;;;22.05;35.38;97204.22;5044624;28;20214;-51
2022/04/29 11:55:43;;;;;;;3.60;3.30;;;;;;;21.61;34.65;97201.94;5043832;28;20211;-51
2022/04/29 11:58:10;;;;;;;3.42;3.13;;;;;;;22.41;34.63;97187.75;5034949;28;20239;-52
2022/04/29 12:00:36;;;;;;;4.05;2.80;;;;;;;22.89;36.51;97183.06;5045058;28;20555;-52
2022/04/29 12:03:04;;;;;;;3.17;2.70;;;;;;;22.60;35.98;97190.47;5044919;28;20207;-50
2022/04/29 12:05:33;;;;;;;3.20;3.00;;;;;;;22.69;33.16;97183.91;5045809;28;20303;-50
2022/04/29 12:08:03;;;;;;;3.08;2.88;;;;;;;22.60;35.75;97184.28;5045397;28;20203;-51